Estación Meteorológica Peña el Pijo (Robertgarden) [ 01/30/23 15:21:56 CET ]

Fecha Hora Presion(HPa) Temp (°C) Humedad % Rocio (°C) Viento ( m/s) Direccion Lluvia 1Hora(mm) Lluvia 24H(mm) LLuvia Total(mm)
2012-May-07 01:01:12 1011.800 7.3 73 2.8         158.50
2012-May-07 02:01:16 1011.900 6.8 75 2.7         158.50
2012-May-07 03:03:42 1011.500 5.3 77 1.6         158.50
2012-May-07 04:01:13 1011.400 4.5 81 1.5         158.50
2012-May-07 05:01:17 1011.300 4.2 82 1.4         158.50
2012-May-07 06:01:17 1011.400 3.3 84 0.8         158.50
2012-May-07 07:01:18 1011.900 2.8 86 0.7         158.50
2012-May-07 08:01:16 1012.300 4.3 89 2.6         158.50
2012-May-07 09:01:19 1012.400 9.8 74 5.4         158.50
2012-May-07 10:01:17 1012.500 15.1 54 5.8         158.50
2012-May-07 11:01:18 1012.300 19.1 42 5.8         158.50
2012-May-07 12:01:16 1012.300 21.5 30 3.2         158.50
2012-May-07 13:01:15 1012.200 23.4 28 3.7         158.50
2012-May-07 14:01:12 1012.300 23.1 28 3.5         158.50
2012-May-07 15:01:13 1011.700 25.6 25 3.9         158.50
2012-May-07 16:01:13 1011.500 26.2 21 2.1         158.50
2012-May-07 17:01:13 1011.100 26.4 21 2.2         158.50
2012-May-07 18:01:16 1011.400 25.5 24 3.2         158.50
2012-May-07 19:01:16 1011.500 24.1 28 4.3         158.50
2012-May-07 20:01:14 1011.500 20.3 31 2.6         158.50
2012-May-07 21:01:11 1012.500 17.8 37 2.8         158.50
2012-May-07 22:01:12 1012.900 14.9 45 3.0         158.50
2012-May-07 23:01:13 1013.600 13.1 55 4.2         158.50

Temperatura Máxima:26°    Temperatura Mínima:
Presión Máxima:1013.600 Hpa    Presión Mínima:1011.100 Hpa


Volver